Time;durP1;ratioP1;P1;durP2;ratioP2;P2;SDS_P1;SDS_P2;PMS_P1;PMS_P2;Temp;Humidity;BMP_temperature;BMP_pressure;BME280_temperature;BME280_humidity;BME280_pressure;Samples;Min_cycle;Max_cycle;Signal;HPM_P1;HPM_P2
2019/11/26 00:01:40;;;;;;;71.3;58.8;;;;;;;22.56;41.75488;980.2564;;;;
2019/11/26 00:04:04;;;;;;;72.4;59.3;;;;;;;22.55;41.56348;980.2369;;;;
2019/11/26 00:06:30;;;;;;;72.6;59.5;;;;;;;22.55;41.70117;980.2151;;;;
2019/11/26 00:08:55;;;;;;;70.7;58.4;;;;;;;22.55;41.66895;980.2258;;;;
2019/11/26 00:11:20;;;;;;;70.7;58.8;;;;;;;22.55;41.53027;980.1852;;;;
2019/11/26 00:13:45;;;;;;;72.5;58.6;;;;;;;22.55;41.58398;980.2134;;;;
2019/11/26 00:16:10;;;;;;;71.4;58.7;;;;;;;22.53;41.46582;980.2189;;;;
2019/11/26 00:18:35;;;;;;;72.6;59.1;;;;;;;22.55;41.5;980.246;;;;
2019/11/26 00:21:00;;;;;;;72.8;59;;;;;;;22.55;41.65723;980.2759;;;;
2019/11/26 00:23:26;;;;;;;72.7;58.9;;;;;;;22.54;41.51953;980.3206;;;;
2019/11/26 00:25:51;;;;;;;70.3;58;;;;;;;22.56;41.53125;980.3599;;;;
2019/11/26 00:28:16;;;;;;;73.2;59.2;;;;;;;22.56;41.5;980.3474;;;;
2019/11/26 00:30:43;;;;;;;72.5;59.2;;;;;;;22.56;41.37305;980.3155;;;;
2019/11/26 00:33:44;;;;;;;72.3;59.3;;;;;;;22.54;41.50977;980.2753;;;;
2019/11/26 00:36:09;;;;;;;73.3;60;;;;;;;22.54;41.58203;980.2515;;;;
2019/11/26 00:38:46;;;;;;;70.9;58.1;;;;;;;22.52;41.32715;980.1982;;;;
2019/11/26 00:41:11;;;;;;;71.5;58.3;;;;;;;22.54;41.33887;980.185;;;;
2019/11/26 00:43:37;;;;;;;72.3;59.5;;;;;;;22.53;41.43457;980.0964;;;;
2019/11/26 00:46:04;;;;;;;71.8;58.9;;;;;;;22.52;41.33789;980.0803;;;;
2019/11/26 00:48:29;;;;;;;71.2;58.3;;;;;;;22.53;41.46582;980.0829;;;;
2019/11/26 00:51:03;;;;;;;71.8;59.1;;;;;;;22.53;41.46582;980.0748;;;;
2019/11/26 00:53:28;;;;;;;71.9;58.9;;;;;;;22.53;41.33789;980.0692;;;;
2019/11/26 00:55:53;;;;;;;71.2;58.3;;;;;;;22.54;41.38184;980.0769;;;;
2019/11/26 00:58:18;;;;;;;71.3;58.4;;;;;;;22.52;41.28516;980.1256;;;;
2019/11/26 01:00:47;;;;;;;71.7;58.6;;;;;;;22.52;41.30664;980.0528;;;;
2019/11/26 01:03:11;;;;;;;72.7;59.1;;;;;;;22.52;41.36914;979.938;;;;
2019/11/26 01:05:38;;;;;;;71.4;59;;;;;;;22.52;41.2002;979.8815;;;;
2019/11/26 01:08:03;;;;;;;73;59.6;;;;;;;22.53;41.18066;979.8505;;;;
2019/11/26 01:10:32;;;;;;;71.6;58.7;;;;;;;22.53;41.22266;979.8472;;;;
2019/11/26 01:12:59;;;;;;;70.9;58.5;;;;;;;22.52;41.15723;979.8926;;;;
2019/11/26 01:15:24;;;;;;;72.4;58.6;;;;;;;22.53;41.14844;979.8875;;;;
2019/11/26 01:17:49;;;;;;;71.7;59;;;;;;;22.52;41.14746;979.9509;;;;
2019/11/26 01:20:14;;;;;;;70.4;58;;;;;;;22.52;41.17969;980.0125;;;;
2019/11/26 01:25:37;;;;;;;71;58.9;;;;;;;22.54;41.18164;980.0059;;;;
2019/11/26 01:27:48;;;;;;;69.6;58.6;;;;;;;22.52;41.13574;979.9313;;;;
2019/11/26 01:30:11;;;;;;;71.6;59.1;;;;;;;22.52;41.14746;979.8704;;;;
2019/11/26 01:32:36;;;;;;;72.8;58.9;;;;;;;22.51;41.08301;979.8318;;;;
2019/11/26 01:35:01;;;;;;;69.6;58.1;;;;;;;22.51;41.12598;979.7721;;;;
2019/11/26 01:37:26;;;;;;;69.8;57.9;;;;;;;22.52;41.05176;979.765;;;;
2019/11/26 01:39:52;;;;;;;70.4;58.4;;;;;;;22.52;41.09473;979.8479;;;;
2019/11/26 01:42:17;;;;;;;71.2;58.6;;;;;;;22.54;41;979.835;;;;
2019/11/26 01:44:42;;;;;;;70.6;58.6;;;;;;;22.53;41.0957;979.8717;;;;
2019/11/26 01:47:07;;;;;;;70.8;57.9;;;;;;;22.53;41.07422;979.8666;;;;
2019/11/26 01:49:32;;;;;;;70.6;58.3;;;;;;;22.52;41.0625;979.8455;;;;
2019/11/26 01:51:57;;;;;;;70.6;58.7;;;;;;;22.51;41.07227;979.8403;;;;
2019/11/26 01:54:22;;;;;;;72;58.8;;;;;;;22.53;41.03125;979.7921;;;;
2019/11/26 01:56:47;;;;;;;70.4;58.4;;;;;;;22.53;41.02051;979.7166;;;;
2019/11/26 01:59:12;;;;;;;71.2;58.3;;;;;;;22.52;41.07227;979.6205;;;;
2019/11/26 02:01:38;;;;;;;69.9;58.2;;;;;;;22.52;40.91406;979.6004;;;;
2019/11/26 02:04:03;;;;;;;70.8;57.9;;;;;;;22.51;40.89258;979.5941;;;;
2019/11/26 02:06:28;;;;;;;70.1;57.3;;;;;;;22.49;41.0498;979.4949;;;;
2019/11/26 02:08:53;;;;;;;71.6;58.5;;;;;;;22.53;41.00977;979.5352;;;;
2019/11/26 02:11:18;;;;;;;70.2;58.2;;;;;;;22.51;40.99902;979.5347;;;;
2019/11/26 02:13:43;;;;;;;69.5;57.9;;;;;;;22.52;40.90332;979.5114;;;;
2019/11/26 02:16:12;;;;;;;69.3;57.5;;;;;;;22.52;40.95605;979.4939;;;;
2019/11/26 02:18:37;;;;;;;68.5;57.1;;;;;;;22.54;40.94824;979.4441;;;;
2019/11/26 02:21:04;;;;;;;69.6;58.1;;;;;;;22.54;40.92676;979.4277;;;;
2019/11/26 02:23:29;;;;;;;69.6;57.7;;;;;;;22.54;40.93652;979.4387;;;;
2019/11/26 02:25:54;;;;;;;69.9;57.9;;;;;;;22.54;40.88379;979.473;;;;
2019/11/26 02:28:19;;;;;;;68.6;57.5;;;;;;;22.54;40.98047;979.492;;;;
2019/11/26 02:30:44;;;;;;;69.7;57.4;;;;;;;22.54;40.9375;979.4047;;;;
2019/11/26 02:33:09;;;;;;;69;56.8;;;;;;;22.53;40.86328;979.3309;;;;
2019/11/26 02:35:34;;;;;;;69;56.8;;;;;;;22.53;40.93652;979.2813;;;;
2019/11/26 02:38:00;;;;;;;68.8;57.5;;;;;;;22.52;40.8623;979.2903;;;;
2019/11/26 02:40:25;;;;;;;69.7;57.7;;;;;;;22.52;40.88184;979.2662;;;;
2019/11/26 02:42:51;;;;;;;69.6;57;;;;;;;22.51;40.90332;979.2391;;;;
2019/11/26 02:45:19;;;;;;;69.2;56.3;;;;;;;22.52;40.9248;979.1833;;;;
2019/11/26 02:47:57;;;;;;;69.8;57.1;;;;;;;22.53;40.75684;979.1956;;;;
2019/11/26 02:52:40;;;;;;;68.5;57;;;;;;;22.53;40.88379;979.2151;;;;
2019/11/26 02:55:05;;;;;;;70.5;57.2;;;;;;;22.53;40.97852;979.295;;;;
2019/11/26 02:57:29;;;;;;;69;56.8;;;;;;;22.53;40.91602;979.2913;;;;
2019/11/26 02:59:54;;;;;;;67.3;56.5;;;;;;;22.54;40.83105;979.2742;;;;
2019/11/26 03:02:19;;;;;;;69.1;56;;;;;;;22.52;40.9668;979.231;;;;
2019/11/26 03:04:45;;;;;;;68;56.3;;;;;;;22.52;40.97852;979.1476;;;;
2019/11/26 03:07:10;;;;;;;67.5;56;;;;;;;22.52;40.83008;979.1694;;;;
2019/11/26 03:09:35;;;;;;;69.8;57;;;;;;;22.52;40.95703;979.1611;;;;
2019/11/26 03:12:01;;;;;;;67.8;56.5;;;;;;;22.53;40.91602;979.115;;;;
2019/11/26 03:14:26;;;;;;;67.9;56.2;;;;;;;22.52;40.8623;979.1465;;;;
2019/11/26 03:16:55;;;;;;;68.4;56.4;;;;;;;22.53;40.90527;979.1055;;;;
2019/11/26 03:19:21;;;;;;;68.5;56.4;;;;;;;22.53;40.86328;979.1223;;;;
2019/11/26 03:21:46;;;;;;;67.1;55.8;;;;;;;22.54;40.86328;979.1219;;;;
2019/11/26 03:24:12;;;;;;;67.7;55.9;;;;;;;22.53;40.84082;979.0801;;;;
2019/11/26 03:26:37;;;;;;;67.5;55.9;;;;;;;22.53;40.76758;979.0925;;;;
2019/11/26 03:29:02;;;;;;;69.1;55.8;;;;;;;22.54;40.83105;979.0733;;;;
2019/11/26 03:31:27;;;;;;;66.8;56;;;;;;;22.54;40.83105;979.085;;;;
2019/11/26 03:33:52;;;;;;;66.7;55.7;;;;;;;22.53;40.8623;978.9995;;;;
2019/11/26 03:36:17;;;;;;;67.3;55.5;;;;;;;22.53;40.82031;978.9695;;;;
2019/11/26 03:38:44;;;;;;;66.8;55.4;;;;;;;22.52;40.8291;978.9767;;;;
2019/11/26 03:41:09;;;;;;;67.7;56;;;;;;;22.51;40.85059;978.9771;;;;
2019/11/26 03:43:36;;;;;;;67;55.7;;;;;;;22.53;40.79883;978.9447;;;;
2019/11/26 03:46:01;;;;;;;67;55.9;;;;;;;22.53;40.87305;978.9481;;;;
2019/11/26 03:48:42;;;;;;;67.1;55.8;;;;;;;22.52;40.7666;978.9512;;;;
2019/11/26 03:53:01;;;;;;;66.9;55.1;;;;;;;22.52;40.69238;978.9753;;;;
2019/11/26 03:55:26;;;;;;;66.7;55.4;;;;;;;22.51;40.85059;978.9761;;;;
2019/11/26 03:57:51;;;;;;;66.9;55.4;;;;;;;22.51;40.76563;978.993;;;;
2019/11/26 04:02:43;;;;;;;65.9;55.1;;;;;;;22.52;40.78711;978.9902;;;;
2019/11/26 04:05:27;;;;;;;66.7;55.5;;;;;;;22.5;40.75293;978.9601;;;;
2019/11/26 04:07:52;;;;;;;65.8;54.9;;;;;;;22.5;40.74414;978.9766;;;;
2019/11/26 04:10:21;;;;;;;66.5;55.1;;;;;;;22.51;40.78613;978.9872;;;;
2019/11/26 04:12:46;;;;;;;68;55.9;;;;;;;22.52;40.75488;978.9975;;;;
2019/11/26 04:15:12;;;;;;;67.8;55.2;;;;;;;22.52;40.72363;979.0042;;;;
2019/11/26 04:17:52;;;;;;;66.7;54.5;;;;;;;22.52;40.87207;978.9534;;;;
2019/11/26 04:20:18;;;;;;;66.6;55.1;;;;;;;22.58;40.87695;978.9336;;;;
2019/11/26 04:22:47;;;;;;;66.3;55.3;;;;;;;22.64;41.11621;978.9333;;;;
2019/11/26 04:25:13;;;;;;;65.5;54.3;;;;;;;22.69;41.02441;978.913;;;;
2019/11/26 04:29:04;;;;;;;66;54.6;;;;;;;22.78;42.2832;978.9099;;;;
2019/11/26 04:31:30;;;;;;;75.8;54.5;;;;;;;22.69;42.41211;978.943;;;;
2019/11/26 04:33:58;;;;;;;72.9;55.3;;;;;;;22.7;41.64063;978.9371;;;;
2019/11/26 04:36:45;;;;;;;70.3;55.3;;;;;;;22.66;42.31445;978.9778;;;;
2019/11/26 04:39:10;;;;;;;71.7;55.2;;;;;;;22.7;42.83594;978.96;;;;
2019/11/26 04:41:35;;;;;;;80.7;56.2;;;;;;;22.76;43.38184;978.9781;;;;
2019/11/26 04:44:55;;;;;;;71.7;54.8;;;;;;;22.7;42.63574;978.876;;;;
2019/11/26 04:47:20;;;;;;;74.9;54.7;;;;;;;22.71;43.04883;978.8289;;;;
2019/11/26 04:49:58;;;;;;;70.2;54.4;;;;;;;22.68;43.47949;978.798;;;;
2019/11/26 04:52:24;;;;;;;76.8;55;;;;;;;22.67;43.55273;978.8251;;;;
2019/11/26 04:54:35;;;;;;;80.6;57;;;;;;;22.63;43.3584;978.8675;;;;
2019/11/26 04:57:02;;;;;;;73.3;56.1;;;;;;;22.62;43.52734;978.8627;;;;
2019/11/26 04:59:32;;;;;;;71.6;55.4;;;;;;;22.6;43.48242;978.883;;;;
2019/11/26 05:01:57;;;;;;;69.3;54.7;;;;;;;22.59;43.69336;978.8844;;;;
2019/11/26 05:04:22;;;;;;;72.5;56.6;;;;;;;22.59;43.85254;978.8743;;;;
2019/11/26 05:06:47;;;;;;;70;55.5;;;;;;;22.59;43.59863;978.9358;;;;
2019/11/26 05:09:12;;;;;;;70.7;55.3;;;;;;;22.58;43.81934;978.8666;;;;
2019/11/26 05:11:37;;;;;;;67.2;55;;;;;;;22.58;43.41602;978.8479;;;;
2019/11/26 05:14:02;;;;;;;70.5;54.4;;;;;;;22.57;43.71289;978.8658;;;;
2019/11/26 05:16:27;;;;;;;69.9;54.6;;;;;;;22.58;42.88867;978.8247;;;;
2019/11/26 05:18:53;;;;;;;80.9;54.1;;;;;;;22.7;43.23828;978.8605;;;;
2019/11/26 05:21:18;;;;;;;67.8;54.7;;;;;;;22.72;43.0498;978.8627;;;;
2019/11/26 05:23:43;;;;;;;76;54.3;;;;;;;22.74;43.8877;978.8497;;;;
2019/11/26 05:26:08;;;;;;;71.1;53.8;;;;;;;22.67;43.77539;978.8527;;;;
2019/11/26 05:28:33;;;;;;;72.2;53.9;;;;;;;22.66;43.91211;978.8706;;;;
2019/11/26 05:30:59;;;;;;;71.1;54;;;;;;;22.64;44.00488;978.8667;;;;
2019/11/26 05:33:24;;;;;;;67.1;54.6;;;;;;;22.63;43.8457;978.8326;;;;
2019/11/26 05:35:49;;;;;;;67.4;55.4;;;;;;;22.65;43.97461;978.9067;;;;
2019/11/26 05:38:32;;;;;;;65.5;53.8;;;;;;;22.63;43.87695;978.8853;;;;
2019/11/26 05:40:57;;;;;;;64.7;53.9;;;;;;;22.64;43.62402;978.9286;;;;
2019/11/26 05:43:22;;;;;;;69.6;53.3;;;;;;;22.63;43.62305;978.8894;;;;
2019/11/26 05:45:50;;;;;;;68.6;52.9;;;;;;;22.63;43.35742;978.8834;;;;
2019/11/26 05:48:15;;;;;;;65.1;53.6;;;;;;;22.62;43.28418;978.8703;;;;
2019/11/26 05:50:57;;;;;;;64.9;53;;;;;;;22.63;43.29395;978.9395;;;;
2019/11/26 05:53:23;;;;;;;67.3;53.6;;;;;;;22.63;43.07324;978.8511;;;;
2019/11/26 05:55:51;;;;;;;63.1;53.2;;;;;;;22.61;43.05078;978.8025;;;;
2019/11/26 05:58:16;;;;;;;63.3;53.1;;;;;;;22.62;42.8291;978.7914;;;;
2019/11/26 06:01:13;;;;;;;64.2;53.1;;;;;;;22.61;42.90234;978.81;;;;
2019/11/26 06:03:38;;;;;;;63.2;53.2;;;;;;;22.62;42.63867;978.824;;;;
2019/11/26 06:06:09;;;;;;;62.6;53;;;;;;;22.63;42.63965;978.8256;;;;
2019/11/26 06:08:34;;;;;;;65.1;53.8;;;;;;;22.62;42.62793;978.7844;;;;
2019/11/26 06:10:59;;;;;;;62.9;53.7;;;;;;;22.63;42.62793;978.7967;;;;
2019/11/26 06:13:24;;;;;;;90.2;58.4;;;;;;;22.91;43.08887;978.6978;;;;
2019/11/26 06:16:11;;;;;;;62.5;52.7;;;;;;;22.95;43.10352;978.7548;;;;
2019/11/26 06:18:41;;;;;;;64.9;51.7;;;;;;;22.99;42.85352;978.7141;;;;
2019/11/26 06:23:11;;;;;;;72.2;53.6;;;;;;;24.38;37.46875;979.0097;;;;
2019/11/26 06:25:51;;;;;;;73.5;53.8;;;;;;;24.37;37.75586;979.0162;;;;
2019/11/26 16:41:18;;;;;;;89.4;54.2;;;;;;;23.56;39.05762;976.0594;;;;
2019/11/26 16:43:44;;;;;;;85.9;54.5;;;;;;;23.37;39.68848;976.0442;;;;
2019/11/26 16:46:09;;;;;;;86.7;54.7;;;;;;;23.23;39.99414;976.0856;;;;
2019/11/26 16:48:34;;;;;;;85.2;54.6;;;;;;;23.16;39.75488;976.0103;;;;
2019/11/26 16:50:59;;;;;;;89.6;56.3;;;;;;;23;38.94434;975.9339;;;;
2019/11/26 16:53:26;;;;;;;85.1;54.6;;;;;;;22.93;39.42578;975.7976;;;;
2019/11/26 16:55:51;;;;;;;80.3;54.1;;;;;;;22.97;39.58984;975.8098;;;;
2019/11/26 16:58:21;;;;;;;77.3;53.5;;;;;;;22.99;39.67578;975.8519;;;;
2019/11/26 17:00:46;;;;;;;78.4;54.1;;;;;;;23;39.60156;975.7433;;;;
2019/11/26 17:03:12;;;;;;;78.6;54;;;;;;;23.02;39.625;975.7809;;;;
2019/11/26 17:05:37;;;;;;;82.6;53.9;;;;;;;23.06;39.61816;975.7801;;;;
2019/11/26 17:08:07;;;;;;;79.1;53.9;;;;;;;23.02;39.67871;975.8253;;;;
2019/11/26 17:10:32;;;;;;;81.2;54.5;;;;;;;23.04;39.62695;975.8367;;;;
2019/11/26 17:12:57;;;;;;;75.7;53.6;;;;;;;23.09;39.66309;975.7766;;;;
2019/11/26 17:15:25;;;;;;;81.2;53.9;;;;;;;23.23;39.54785;975.653;;;;
2019/11/26 17:17:50;;;;;;;73.5;53.1;;;;;;;23.28;39.63672;975.5858;;;;
2019/11/26 17:20:16;;;;;;;72.4;53.3;;;;;;;23.32;39.4502;975.5679;;;;
2019/11/26 17:22:41;;;;;;;70.2;53.3;;;;;;;23.29;39.60742;975.6231;;;;
2019/11/26 17:25:06;;;;;;;70.3;53;;;;;;;23.3;39.49121;975.5965;;;;
2019/11/26 17:27:31;;;;;;;72.1;53.2;;;;;;;23.25;39.63477;975.5389;;;;
2019/11/26 17:29:56;;;;;;;74.3;53.6;;;;;;;23.29;39.74512;975.5923;;;;
2019/11/26 17:32:21;;;;;;;72;53.9;;;;;;;23.37;39.64551;975.5408;;;;
2019/11/26 17:34:46;;;;;;;74.6;53;;;;;;;23.44;39.72559;975.4889;;;;
2019/11/26 17:37:11;;;;;;;71.9;53.4;;;;;;;23.44;40.22461;975.4565;;;;
2019/11/26 17:39:36;;;;;;;70.4;53.3;;;;;;;23.39;40.78223;975.4736;;;;
2019/11/26 17:42:01;;;;;;;74.9;53.7;;;;;;;23.42;40.65723;975.4519;;;;
2019/11/26 17:44:27;;;;;;;71.2;53.4;;;;;;;23.43;40.34082;975.4674;;;;
2019/11/26 17:46:52;;;;;;;72.2;53.7;;;;;;;23.41;41.07031;975.4119;;;;
2019/11/26 17:49:17;;;;;;;72.6;53;;;;;;;23.43;40.78613;975.3777;;;;
2019/11/26 17:51:42;;;;;;;75.8;53.4;;;;;;;23.39;41.05859;975.2153;;;;
2019/11/26 17:54:07;;;;;;;73.8;53.1;;;;;;;23.4;41.06836;975.1516;;;;
2019/11/26 17:56:32;;;;;;;70.9;53.6;;;;;;;23.38;41.00293;975.2222;;;;
2019/11/26 17:59:02;;;;;;;73.6;54.1;;;;;;;23.41;41.21875;975.152;;;;
2019/11/26 18:01:41;;;;;;;74.2;54.1;;;;;;;23.4;40.79395;975.2974;;;;
2019/11/26 18:03:48;;;;;;;76.7;53.8;;;;;;;23.42;41.01758;975.3516;;;;
2019/11/26 18:06:14;;;;;;;69.7;53.8;;;;;;;23.41;41.07031;975.3289;;;;
2019/11/26 18:08:39;;;;;;;75;54.3;;;;;;;23.49;40.78125;975.313;;;;
2019/11/26 18:11:05;;;;;;;73.5;54;;;;;;;23.52;40.52832;975.3875;;;;
2019/11/26 18:13:30;;;;;;;74;54;;;;;;;23.49;40.80176;975.4059;;;;
2019/11/26 18:16:00;;;;;;;71.4;53.7;;;;;;;23.5;40.79102;975.3119;;;;
2019/11/26 18:18:25;;;;;;;71.3;53.9;;;;;;;23.48;40.74805;975.3733;;;;
2019/11/26 18:20:50;;;;;;;70.1;53.8;;;;;;;23.47;40.70508;975.4794;;;;
2019/11/26 18:23:15;;;;;;;69.3;53.3;;;;;;;23.43;40.5;975.495;;;;
2019/11/26 18:25:40;;;;;;;69.4;53;;;;;;;23.38;40.77051;975.4969;;;;
2019/11/26 18:28:05;;;;;;;74.9;53.7;;;;;;;23.47;40.60938;975.4317;;;;
2019/11/26 18:30:31;;;;;;;73.4;52.9;;;;;;;23.47;40.48242;975.4246;;;;
2019/11/26 18:32:56;;;;;;;70.8;53.2;;;;;;;23.47;40.36523;975.4852;;;;
2019/11/26 18:35:21;;;;;;;70.7;53.8;;;;;;;23.52;40.54004;975.4197;;;;
2019/11/26 18:37:46;;;;;;;68.5;53.8;;;;;;;23.51;40.70703;975.5297;;;;
2019/11/26 18:40:11;;;;;;;71.4;53.8;;;;;;;23.48;40.52441;975.5553;;;;
2019/11/26 18:42:41;;;;;;;84.3;63.3;;;;;;;12.24;56.42871;975.8574;;;;
2019/11/26 18:45:06;;;;;;;140.4;72.9;;;;;;;11.82;61.07129;975.8674;;;;
2019/11/26 18:47:33;;;;;;;262;74.5;;;;;;;12.23;74.33887;975.7976;;;;
2019/11/26 18:49:58;;;;;;;82.1;54.4;;;;;;;20.39;46.94922;975.5492;;;;
2019/11/26 18:52:23;;;;;;;79.3;54.7;;;;;;;22.33;40.9082;975.5663;;;;
2019/11/26 18:54:48;;;;;;;77.9;55.5;;;;;;;22.97;39.33398;975.5388;;;;
2019/11/26 18:57:13;;;;;;;75.2;55.8;;;;;;;23.17;39.52148;975.4246;;;;
2019/11/26 18:59:43;;;;;;;78.9;56.2;;;;;;;23.38;39.21094;975.378;;;;
2019/11/26 19:02:07;;;;;;;76.4;55.3;;;;;;;23.44;39.05664;975.3365;;;;
2019/11/26 19:04:32;;;;;;;75.2;55.6;;;;;;;23.47;38.92188;975.2647;;;;
2019/11/26 19:06:59;;;;;;;74;55.7;;;;;;;23.47;38.94336;975.2144;;;;
2019/11/26 19:09:24;;;;;;;74.6;55.4;;;;;;;23.48;38.87012;975.1614;;;;
2019/11/26 19:11:50;;;;;;;71.7;55.1;;;;;;;23.52;38.87305;975.1403;;;;
2019/11/26 19:14:15;;;;;;;74.4;55.3;;;;;;;23.53;38.84277;975.088;;;;
2019/11/26 19:16:40;;;;;;;74.3;54.9;;;;;;;23.55;38.80176;975.0745;;;;
2019/11/26 19:19:05;;;;;;;73.2;55.1;;;;;;;23.55;38.73828;975.0603;;;;
2019/11/26 19:21:30;;;;;;;75;55.1;;;;;;;23.57;38.76074;975.0647;;;;
2019/11/26 19:23:55;;;;;;;75;55.1;;;;;;;23.56;38.70703;974.9976;;;;
2019/11/26 19:26:20;;;;;;;74.8;55.1;;;;;;;23.53;38.74707;974.9853;;;;
2019/11/26 19:28:45;;;;;;;73.5;55.1;;;;;;;23.55;38.78027;975.0223;;;;
2019/11/26 19:33:21;;;;;;;76.9;55.9;;;;;;;24.04;37.72754;975.0871;;;;
2019/11/26 19:35:46;;;;;;;75.6;56.4;;;;;;;24;37.83105;975.0469;;;;
2019/11/26 19:38:11;;;;;;;75.3;56.3;;;;;;;23.97;37.84961;974.9637;;;;
2019/11/26 19:40:36;;;;;;;75.3;55.9;;;;;;;23.95;37.78418;974.8699;;;;
2019/11/26 19:43:02;;;;;;;76;56.1;;;;;;;23.97;37.87109;974.8349;;;;
2019/11/26 19:45:27;;;;;;;73.9;56;;;;;;;23.91;37.87695;974.8122;;;;
2019/11/26 19:47:52;;;;;;;74.5;55.5;;;;;;;23.9;37.89648;974.8036;;;;
2019/11/26 19:50:17;;;;;;;74.3;55.4;;;;;;;23.87;37.96875;974.7972;;;;
2019/11/26 19:52:42;;;;;;;72.8;55.5;;;;;;;23.9;37.87598;974.6572;;;;
2019/11/26 19:55:07;;;;;;;74.1;55.8;;;;;;;23.93;37.70801;974.562;;;;
2019/11/26 19:57:32;;;;;;;73.4;55.9;;;;;;;23.9;37.80078;974.5961;;;;
2019/11/26 19:59:57;;;;;;;71;55;;;;;;;23.87;37.77734;974.5798;;;;
2019/11/26 20:02:22;;;;;;;75.2;55.6;;;;;;;23.87;37.80957;974.5673;;;;
2019/11/26 20:04:47;;;;;;;70.2;55.1;;;;;;;23.84;37.81738;974.5558;;;;
2019/11/26 20:07:16;;;;;;;73.3;55.4;;;;;;;23.85;37.78516;974.474;;;;
2019/11/26 20:20:40;;;;;;;70.9;56.6;;;;;;;23.77;38.91602;973.9698;;;;
2019/11/26 20:24:20;;;;;;;71.4;55.7;;;;;;;23.84;39.16699;973.9515;;;;
2019/11/26 20:26:53;;;;;;;72.6;55.6;;;;;;;23.75;39.16895;973.5108;;;;
